createdAt,value
2022-09-30T00:01:53.669Z,704.60
2022-09-30T00:04:24.327Z,699.80
2022-09-30T00:06:53.521Z,695.13
2022-09-30T00:09:27.698Z,707.65
2022-09-30T00:11:58.082Z,705.80
2022-09-30T00:14:25.733Z,704.10
2022-09-30T00:16:59.841Z,706.97
2022-09-30T00:19:27.404Z,708.72
2022-09-30T00:21:54.947Z,703.42
2022-09-30T00:24:22.563Z,707.42
2022-09-30T00:26:49.914Z,707.85
2022-09-30T00:29:17.320Z,707.75
2022-09-30T00:31:44.998Z,710.47
2022-09-30T00:34:13.065Z,714.63
2022-09-30T00:36:46.336Z,722.53
2022-09-30T00:39:17.099Z,721.72
2022-09-30T00:41:48.179Z,713.53
2022-09-30T00:44:48.254Z,704.10
2022-09-30T00:47:25.056Z,699.40
2022-09-30T00:49:53.281Z,708.70
2022-09-30T00:52:20.728Z,713.22
2022-09-30T00:54:55.873Z,710.08
2022-09-30T00:57:23.275Z,713.70
2022-09-30T00:59:52.074Z,710.53
2022-09-30T01:02:20.447Z,713.42
2022-09-30T01:04:52.371Z,709.70
2022-09-30T01:07:20.895Z,718.45
2022-09-30T01:09:49.202Z,717.15
2022-09-30T01:12:23.085Z,716.33
2022-09-30T01:14:55.147Z,709.13
2022-09-30T01:17:49.568Z,706.08
2022-09-30T01:20:47.036Z,699.88
2022-09-30T01:23:53.002Z,701.50
2022-09-30T01:26:32.299Z,711.53
2022-09-30T01:29:27.299Z,710.20
2022-09-30T01:32:03.607Z,710.42
2022-09-30T01:35:05.006Z,714.40
2022-09-30T01:38:01.891Z,711.10
2022-09-30T01:41:00.774Z,708.90
2022-09-30T01:43:51.758Z,715.25
2022-09-30T01:46:53.452Z,709.92
2022-09-30T01:49:27.404Z,712.08
2022-09-30T01:52:20.983Z,714.15
2022-09-30T01:55:21.912Z,701.10
2022-09-30T01:58:06.511Z,678.67
2022-09-30T02:00:39.413Z,676.92
2022-09-30T02:03:16.252Z,688.97
2022-09-30T02:05:51.486Z,680.67
2022-09-30T02:08:25.122Z,689.30
2022-09-30T02:11:03.347Z,703.88
2022-09-30T02:14:00.602Z,692.85
2022-09-30T02:16:46.206Z,722.53
2022-09-30T02:19:32.056Z,716.65
2022-09-30T02:22:16.375Z,714.97
2022-09-30T02:24:46.241Z,716.17
2022-09-30T02:27:22.403Z,747.67
2022-09-30T02:29:55.965Z,743.63
2022-09-30T02:35:06.785Z,708.67
2022-09-30T02:37:44.637Z,746.58
2022-09-30T02:40:50.831Z,737.28
2022-09-30T02:43:20.806Z,767.33
2022-09-30T02:46:21.229Z,729.63
2022-09-30T02:48:55.947Z,724.10
2022-09-30T02:51:44.039Z,706.42
2022-09-30T02:54:55.416Z,707.97
2022-09-30T02:57:38.332Z,700.58
2022-09-30T03:00:12.479Z,696.08
2022-09-30T03:02:41.768Z,699.35
2022-09-30T03:05:10.354Z,703.75
2022-09-30T03:07:38.588Z,710.25
2022-09-30T03:10:16.641Z,710.30
2022-09-30T03:13:07.937Z,715.20
2022-09-30T03:16:03.274Z,725.28
2022-09-30T03:18:49.387Z,705.45
2022-09-30T03:21:40.318Z,710.40
2022-09-30T03:24:27.384Z,715.22
2022-09-30T03:26:58.928Z,705.35
2022-09-30T03:29:31.236Z,712.40
2022-09-30T03:32:17.616Z,689.13
2022-09-30T03:35:04.126Z,706.95
2022-09-30T03:37:49.768Z,681.35
2022-09-30T03:40:33.182Z,692.00
2022-09-30T03:43:12.855Z,688.10
2022-09-30T03:45:55.628Z,697.47
2022-09-30T03:48:24.714Z,704.42
2022-09-30T03:50:53.326Z,694.83
2022-09-30T03:53:21.269Z,690.03
2022-09-30T03:55:51.473Z,686.03
2022-09-30T03:58:22.265Z,699.55
2022-09-30T04:00:54.756Z,688.05
2022-09-30T04:03:23.560Z,685.97
2022-09-30T04:05:50.878Z,673.72
2022-09-30T04:08:18.295Z,676.42
2022-09-30T04:10:46.735Z,709.22
2022-09-30T04:13:15.311Z,695.08
2022-09-30T04:15:42.662Z,693.90
2022-09-30T04:18:09.970Z,703.70
2022-09-30T04:20:39.510Z,708.63
2022-09-30T04:23:07.312Z,715.88
2022-09-30T04:25:34.621Z,708.17
2022-09-30T04:28:04.600Z,704.85
2022-09-30T04:30:33.727Z,704.67
2022-09-30T04:33:01.349Z,709.45
2022-09-30T04:35:30.276Z,706.65
2022-09-30T04:37:57.745Z,583.30
2022-09-30T04:40:25.559Z,633.97
2022-09-30T04:42:58.331Z,691.17
2022-09-30T04:45:26.242Z,692.42
2022-09-30T04:47:53.976Z,722.55
2022-09-30T04:50:21.636Z,728.05
2022-09-30T04:52:50.902Z,722.22
2022-09-30T04:55:18.293Z,719.13
2022-09-30T04:57:46.039Z,726.17
2022-09-30T05:00:14.907Z,727.33
2022-09-30T05:02:44.926Z,729.88
2022-09-30T05:05:14.741Z,740.10
2022-09-30T05:07:42.174Z,731.70
2022-09-30T05:10:11.376Z,733.67
2022-09-30T05:12:46.638Z,734.28
2022-09-30T05:15:13.996Z,744.83
2022-09-30T05:17:41.422Z,740.55
2022-09-30T05:20:11.037Z,732.17
2022-09-30T05:22:38.689Z,725.25
2022-09-30T05:25:09.682Z,733.00
2022-09-30T05:27:37.588Z,726.33
2022-09-30T05:30:06.770Z,698.00
2022-09-30T05:32:34.138Z,718.03
2022-09-30T05:35:03.721Z,715.15
2022-09-30T05:37:31.616Z,715.40
2022-09-30T05:39:59.423Z,720.53
2022-09-30T05:42:26.778Z,725.92
2022-09-30T05:44:54.028Z,730.15
2022-09-30T05:47:21.505Z,739.78
2022-09-30T05:49:51.115Z,729.00
2022-09-30T05:52:22.772Z,732.00
2022-09-30T05:54:50.851Z,727.15
2022-09-30T05:57:18.350Z,735.42
2022-09-30T05:59:45.758Z,723.08
2022-09-30T06:02:15.529Z,732.25
2022-09-30T06:04:42.863Z,735.25
2022-09-30T06:07:10.747Z,733.72
2022-09-30T06:09:38.609Z,729.92
2022-09-30T06:12:07.060Z,724.85
2022-09-30T06:14:34.613Z,721.40
2022-09-30T06:17:05.378Z,722.13
2022-09-30T06:19:33.079Z,725.72
2022-09-30T06:22:00.689Z,728.60
2022-09-30T06:24:28.103Z,741.30
2022-09-30T06:26:55.422Z,736.38
2022-09-30T06:29:22.820Z,732.33
2022-09-30T06:31:50.175Z,742.42
2022-09-30T06:34:17.591Z,727.58
2022-09-30T06:36:44.812Z,729.03
2022-09-30T06:39:13.765Z,693.55
2022-09-30T06:41:44.200Z,732.67
2022-09-30T06:44:22.247Z,737.95
2022-09-30T06:46:53.934Z,744.60
2022-09-30T06:49:22.201Z,746.03
2022-09-30T06:51:51.545Z,707.97
2022-09-30T06:54:22.756Z,284.90
2022-09-30T06:56:52.683Z,687.88
2022-09-30T06:59:19.948Z,709.10
2022-09-30T07:01:47.562Z,724.90
2022-09-30T07:04:15.192Z,731.65
2022-09-30T07:06:45.699Z,732.75
2022-09-30T07:09:13.614Z,735.70
2022-09-30T07:11:41.382Z,738.65
2022-09-30T07:14:13.544Z,731.42
2022-09-30T07:16:40.995Z,729.35
2022-09-30T07:19:10.337Z,734.92
2022-09-30T07:21:38.031Z,733.08
2022-09-30T07:24:05.794Z,736.35
2022-09-30T07:26:33.756Z,741.22
2022-09-30T07:29:02.227Z,750.42
2022-09-30T07:31:34.632Z,749.75
2022-09-30T07:34:07.853Z,746.83
2022-09-30T07:36:37.998Z,753.90
2022-09-30T07:39:09.927Z,748.05
2022-09-30T07:41:44.413Z,751.33
2022-09-30T07:44:14.863Z,750.25
2022-09-30T07:46:45.418Z,752.00
2022-09-30T07:49:20.964Z,748.40
2022-09-30T07:51:48.377Z,749.25
2022-09-30T07:54:18.315Z,744.72
2022-09-30T07:59:37.813Z,746.60
2022-09-30T08:02:07.096Z,754.33
2022-09-30T08:04:36.573Z,769.55
2022-09-30T08:07:06.704Z,758.75
2022-09-30T08:09:35.124Z,786.08
2022-09-30T08:12:04.550Z,767.22
2022-09-30T08:14:32.551Z,770.42
2022-09-30T08:17:00.766Z,772.72
2022-09-30T08:19:30.610Z,775.88
2022-09-30T08:21:58.724Z,779.88
2022-09-30T08:24:27.090Z,797.72
2022-09-30T08:26:55.681Z,801.00
2022-09-30T08:32:13.674Z,824.90
2022-09-30T08:34:41.025Z,844.25
2022-09-30T08:37:10.347Z,836.47
2022-09-30T08:39:39.058Z,841.30
2022-09-30T08:42:36.040Z,846.35
2022-09-30T08:45:34.529Z,849.13
2022-09-30T08:48:20.633Z,855.53
2022-09-30T08:51:13.444Z,842.15
2022-09-30T08:53:44.010Z,848.13
2022-09-30T08:56:24.048Z,854.15
2022-09-30T08:58:57.293Z,849.40
2022-09-30T09:01:30.344Z,847.20
2022-09-30T09:03:59.539Z,833.42
2022-09-30T09:06:50.556Z,872.35
2022-09-30T09:09:38.891Z,913.22
2022-09-30T09:12:44.165Z,909.05
2022-09-30T09:15:36.706Z,923.83
2022-09-30T09:18:25.230Z,951.25
2022-09-30T09:20:58.365Z,938.33
2022-09-30T09:23:28.658Z,936.85
2022-09-30T09:25:56.126Z,915.10
2022-09-30T09:29:01.498Z,896.58
2022-09-30T09:31:28.994Z,848.72
2022-09-30T09:34:07.820Z,845.60
2022-09-30T09:37:46.284Z,837.65
2022-09-30T09:40:36.120Z,825.60
2022-09-30T09:43:16.644Z,818.20
2022-09-30T09:46:09.698Z,820.75
2022-09-30T09:48:37.403Z,802.53
2022-09-30T09:51:24.694Z,806.13
2022-09-30T09:53:58.345Z,795.22
2022-09-30T09:56:35.059Z,794.40
2022-09-30T09:59:19.992Z,808.50
2022-09-30T10:01:53.068Z,793.67
2022-09-30T10:04:30.491Z,825.17
2022-09-30T10:07:00.895Z,813.15
2022-09-30T10:09:35.687Z,801.92
2022-09-30T10:12:06.055Z,797.25
2022-09-30T10:14:35.902Z,812.80
2022-09-30T10:17:05.998Z,811.00
2022-09-30T10:19:35.102Z,815.58
2022-09-30T10:22:12.126Z,816.90
2022-09-30T10:24:40.370Z,812.72
2022-09-30T10:27:52.053Z,814.95
2022-09-30T10:30:55.970Z,813.85
2022-09-30T10:33:29.077Z,824.55
2022-09-30T10:36:14.948Z,813.35
2022-09-30T10:39:24.954Z,810.70
2022-09-30T10:42:08.983Z,807.10
2022-09-30T10:44:47.787Z,812.92
2022-09-30T10:47:19.759Z,829.65
2022-09-30T10:50:10.390Z,858.33
2022-09-30T10:52:53.552Z,935.60
2022-09-30T10:55:20.967Z,971.72
2022-09-30T10:57:50.663Z,958.22
2022-09-30T11:00:27.995Z,959.42
2022-09-30T11:03:17.615Z,989.53
2022-09-30T11:05:46.852Z,1035.13
2022-09-30T11:08:22.819Z,1056.32
2022-09-30T11:11:14.375Z,1043.05
2022-09-30T11:13:57.166Z,1031.75
2022-09-30T11:16:47.070Z,1058.57
2022-09-30T11:19:27.119Z,1082.47
2022-09-30T11:21:57.245Z,1111.22
2022-09-30T11:24:36.982Z,1126.57
2022-09-30T11:27:25.233Z,1139.43
2022-09-30T11:30:28.086Z,1152.88
2022-09-30T11:33:10.731Z,1164.18
2022-09-30T11:35:57.644Z,1124.78
2022-09-30T11:39:01.903Z,1075.63
2022-09-30T11:44:35.506Z,1050.45
2022-09-30T11:47:21.999Z,1061.75
2022-09-30T11:50:07.572Z,1048.25
2022-09-30T11:52:59.797Z,1033.00
2022-09-30T11:56:26.093Z,752.08
2022-09-30T11:58:58.670Z,894.67
2022-09-30T12:01:50.217Z,958.03
2022-09-30T12:04:29.540Z,1032.35
2022-09-30T12:07:01.734Z,1004.08
2022-09-30T12:09:53.921Z,1019.20
2022-09-30T12:12:21.366Z,1021.85
2022-09-30T12:15:05.975Z,1059.03
2022-09-30T12:17:46.797Z,674.95
2022-09-30T12:20:34.947Z,576.92
2022-09-30T12:23:21.205Z,640.80
2022-09-30T12:26:06.935Z,642.22
2022-09-30T12:28:53.061Z,611.95
2022-09-30T12:31:48.384Z,632.28
2022-09-30T12:35:01.569Z,626.30
2022-09-30T12:38:02.568Z,619.28
2022-09-30T12:40:52.327Z,613.85
2022-09-30T12:43:51.499Z,534.95
2022-09-30T12:46:30.597Z,570.58
2022-09-30T12:49:03.946Z,609.63
2022-09-30T12:51:37.704Z,619.38
2022-09-30T12:54:16.688Z,618.47
2022-09-30T12:56:47.190Z,635.40
2022-09-30T12:59:15.588Z,634.97
2022-09-30T13:01:43.278Z,636.38
2022-09-30T13:04:18.346Z,623.78
2022-09-30T13:06:45.635Z,623.50
2022-09-30T13:09:30.115Z,622.30
2022-09-30T13:12:00.387Z,629.67
2022-09-30T13:14:35.243Z,626.53
2022-09-30T13:17:08.526Z,664.95
2022-09-30T13:19:42.836Z,639.58
2022-09-30T13:22:19.204Z,639.00
2022-09-30T13:25:03.301Z,637.88
2022-09-30T13:27:36.720Z,629.78
2022-09-30T13:32:51.641Z,630.50
2022-09-30T13:35:51.066Z,627.80
2022-09-30T13:38:24.523Z,538.00
2022-09-30T13:41:03.005Z,535.03
2022-09-30T13:43:42.827Z,539.67
2022-09-30T13:46:37.277Z,533.20
2022-09-30T13:49:33.551Z,502.00
2022-09-30T13:52:02.678Z,498.20
2022-09-30T13:54:37.854Z,503.88
2022-09-30T13:57:07.614Z,504.20
2022-09-30T13:59:51.079Z,512.28
2022-09-30T14:02:55.175Z,600.40
2022-09-30T14:05:51.059Z,603.35
2022-09-30T14:08:29.354Z,617.60
2022-09-30T14:11:22.582Z,609.30
2022-09-30T14:14:07.442Z,610.50
2022-09-30T14:16:47.603Z,542.22
2022-09-30T14:19:22.481Z,564.70
2022-09-30T14:21:58.832Z,554.40
2022-09-30T14:24:31.784Z,554.80
2022-09-30T14:27:09.881Z,556.63
2022-09-30T14:29:55.050Z,555.33
2022-09-30T14:32:46.393Z,535.63
2022-09-30T14:35:37.453Z,526.97
2022-09-30T14:38:29.659Z,539.83
2022-09-30T14:41:09.330Z,526.55
2022-09-30T14:43:43.062Z,513.67
2022-09-30T14:46:35.419Z,488.75
2022-09-30T14:49:08.553Z,494.98
2022-09-30T14:51:47.281Z,496.38
2022-09-30T14:54:22.819Z,515.97
2022-09-30T14:56:51.186Z,518.88
2022-09-30T14:59:27.816Z,503.27
2022-09-30T15:02:23.363Z,535.13
2022-09-30T15:05:00.451Z,533.42
2022-09-30T15:07:28.733Z,531.45
2022-09-30T15:10:01.871Z,517.50
2022-09-30T15:12:31.738Z,528.30
2022-09-30T15:15:00.640Z,520.45
2022-09-30T15:17:37.220Z,502.98
2022-09-30T15:20:24.576Z,512.53
2022-09-30T15:22:53.633Z,510.73
2022-09-30T15:25:22.132Z,509.30
2022-09-30T15:27:50.501Z,520.67
2022-09-30T15:30:18.474Z,511.60
2022-09-30T15:32:50.262Z,511.52
2022-09-30T15:37:52.512Z,508.17
2022-09-30T15:40:40.993Z,501.85
2022-09-30T15:43:11.972Z,495.98
2022-09-30T15:45:43.607Z,484.92
2022-09-30T15:48:13.769Z,497.38
2022-09-30T15:50:49.347Z,506.38
2022-09-30T15:53:25.352Z,495.98
2022-09-30T15:55:55.990Z,492.15
2022-09-30T15:58:35.156Z,497.00
2022-09-30T16:01:25.145Z,501.73
2022-09-30T16:04:00.873Z,494.05
2022-09-30T16:06:35.323Z,486.58
2022-09-30T16:09:08.646Z,481.90
2022-09-30T16:11:42.414Z,320.08
2022-09-30T16:14:27.654Z,480.30
2022-09-30T16:16:58.681Z,466.80
2022-09-30T16:19:35.111Z,453.83
2022-09-30T16:22:05.519Z,452.50
2022-09-30T16:24:32.902Z,431.58
2022-09-30T16:27:19.864Z,447.38
2022-09-30T16:29:47.584Z,453.92
2022-09-30T16:32:17.288Z,438.98
2022-09-30T16:34:44.698Z,438.48
2022-09-30T16:37:14.163Z,433.15
2022-09-30T16:39:41.821Z,429.17
2022-09-30T16:42:16.974Z,469.73
2022-09-30T16:44:45.478Z,496.15
2022-09-30T16:47:17.878Z,492.33
2022-09-30T16:49:48.464Z,343.13
2022-09-30T16:52:17.624Z,477.92
2022-09-30T16:54:45.529Z,478.63
2022-09-30T16:57:14.382Z,488.77
2022-09-30T16:59:41.675Z,488.90
2022-09-30T17:02:14.159Z,474.45
2022-09-30T17:04:41.629Z,481.43
2022-09-30T17:07:14.520Z,470.98
2022-09-30T17:09:43.166Z,328.45
2022-09-30T17:12:13.681Z,481.55
2022-09-30T17:14:43.867Z,479.35
2022-09-30T17:17:14.202Z,471.15
2022-09-30T17:19:41.650Z,474.48
2022-09-30T17:22:09.160Z,471.83
2022-09-30T17:24:36.431Z,473.85
2022-09-30T17:27:03.931Z,471.50
2022-09-30T17:29:38.862Z,477.65
2022-09-30T17:32:09.340Z,471.67
2022-09-30T17:34:36.611Z,468.58
2022-09-30T17:37:04.048Z,462.17
2022-09-30T17:39:31.391Z,466.73
2022-09-30T17:42:16.862Z,456.88
2022-09-30T17:44:45.444Z,458.17
2022-09-30T17:47:12.826Z,457.35
2022-09-30T17:49:40.458Z,456.85
2022-09-30T17:52:07.831Z,450.45
2022-09-30T17:54:36.044Z,443.10
2022-09-30T17:57:03.762Z,448.73
2022-09-30T17:59:31.230Z,445.92
2022-09-30T18:01:58.705Z,447.52
2022-09-30T18:04:26.990Z,437.42
2022-09-30T18:06:57.904Z,445.33
2022-09-30T18:09:25.398Z,445.63
2022-09-30T18:11:53.569Z,465.85
2022-09-30T18:14:21.094Z,465.42
2022-09-30T18:16:48.502Z,463.65
2022-09-30T18:19:18.834Z,464.80
2022-09-30T18:21:46.637Z,460.27
2022-09-30T18:24:14.024Z,454.58
2022-09-30T18:26:41.481Z,458.67
2022-09-30T18:29:09.012Z,454.73
2022-09-30T18:31:37.768Z,463.33
2022-09-30T18:34:06.572Z,452.58
2022-09-30T18:36:34.118Z,452.38
2022-09-30T18:39:02.765Z,453.23
2022-09-30T18:41:31.877Z,449.73
2022-09-30T18:44:03.055Z,444.63
2022-09-30T18:46:31.879Z,443.27
2022-09-30T18:48:59.340Z,444.63
2022-09-30T18:51:26.787Z,437.90
2022-09-30T18:53:59.258Z,435.02
2022-09-30T18:56:32.285Z,288.63
2022-09-30T19:01:40.286Z,291.80
2022-09-30T19:04:07.813Z,434.23
2022-09-30T19:06:37.571Z,435.27
2022-09-30T19:09:06.742Z,433.48
2022-09-30T19:11:35.368Z,434.25
2022-09-30T19:14:05.916Z,431.05
2022-09-30T19:16:38.520Z,425.58
2022-09-30T19:19:10.976Z,295.20
2022-09-30T19:21:39.612Z,434.33
2022-09-30T19:24:09.117Z,426.77
2022-09-30T19:26:40.425Z,418.92
2022-09-30T19:29:09.797Z,415.08
2022-09-30T19:31:37.827Z,411.83
2022-09-30T19:34:18.991Z,289.30
2022-09-30T19:36:52.046Z,419.33
2022-09-30T19:39:20.032Z,415.67
2022-09-30T19:41:48.048Z,279.95
2022-09-30T19:44:19.210Z,414.52
2022-09-30T19:46:52.659Z,404.27
2022-09-30T19:51:55.221Z,269.25
2022-09-30T19:54:37.715Z,402.83
2022-09-30T19:57:09.742Z,398.48
2022-09-30T19:59:37.087Z,404.85
2022-09-30T20:02:04.672Z,402.98
2022-09-30T20:04:34.443Z,402.95
2022-09-30T20:07:02.399Z,401.48
2022-09-30T20:09:32.728Z,407.33
2022-09-30T20:12:00.271Z,404.10
2022-09-30T20:14:45.979Z,404.65
2022-09-30T20:17:15.751Z,404.83
2022-09-30T20:19:43.151Z,405.40
2022-09-30T20:22:10.700Z,409.20
2022-09-30T20:24:40.607Z,407.08
2022-09-30T20:27:08.371Z,408.60
2022-09-30T20:29:35.659Z,395.80
2022-09-30T20:32:03.856Z,415.15
2022-09-30T20:34:34.452Z,409.80
2022-09-30T20:37:04.179Z,283.73
2022-09-30T20:39:31.573Z,409.52
2022-09-30T20:41:59.851Z,410.75
2022-09-30T20:44:27.204Z,413.63
2022-09-30T20:46:54.640Z,413.10
2022-09-30T20:49:22.047Z,414.80
2022-09-30T20:51:49.954Z,408.95
2022-09-30T20:54:17.387Z,410.15
2022-09-30T20:57:06.804Z,405.63
2022-09-30T20:59:35.617Z,409.85
2022-09-30T21:02:03.052Z,408.67
2022-09-30T21:04:30.545Z,409.88
2022-09-30T21:07:00.135Z,412.75
2022-09-30T21:09:27.569Z,407.60
2022-09-30T21:11:54.880Z,408.15
2022-09-30T21:14:22.356Z,406.88
2022-09-30T21:16:49.782Z,405.80
2022-09-30T21:19:18.891Z,407.63
2022-09-30T21:21:46.853Z,404.48
2022-09-30T21:24:16.502Z,406.77
2022-09-30T21:26:43.841Z,403.38
2022-09-30T21:29:11.211Z,408.27
2022-09-30T21:31:39.128Z,275.98
2022-09-30T21:34:06.583Z,405.00
2022-09-30T21:36:33.989Z,404.40
2022-09-30T21:39:04.923Z,409.05
2022-09-30T21:41:33.988Z,403.63
2022-09-30T21:44:03.707Z,409.05
2022-09-30T21:46:31.532Z,406.85
2022-09-30T21:49:24.917Z,405.63
2022-09-30T21:51:55.873Z,280.77
2022-09-30T21:54:23.531Z,401.75
2022-09-30T21:56:51.653Z,408.23
2022-09-30T21:59:19.590Z,408.63
2022-09-30T22:01:52.280Z,406.52
2022-09-30T22:04:21.991Z,276.58
2022-09-30T22:06:52.319Z,418.55
2022-09-30T22:09:19.760Z,421.00
2022-09-30T22:11:48.234Z,422.30
2022-09-30T22:14:16.102Z,418.60
2022-09-30T22:16:44.593Z,416.05
2022-09-30T22:19:12.607Z,420.42
2022-09-30T22:21:40.264Z,416.60
2022-09-30T22:24:09.515Z,417.83
2022-09-30T22:26:38.067Z,424.88
2022-09-30T22:29:11.462Z,418.80
2022-09-30T22:31:39.642Z,420.67
2022-09-30T22:34:32.821Z,424.38
2022-09-30T22:37:18.611Z,68.38
2022-09-30T22:39:46.055Z,419.75
2022-09-30T22:42:13.504Z,421.67
2022-09-30T22:44:40.964Z,423.02
2022-09-30T22:47:11.434Z,429.77
2022-09-30T22:49:38.983Z,430.83
2022-09-30T22:52:06.904Z,429.60
2022-09-30T22:54:36.162Z,436.42
2022-09-30T22:57:04.655Z,434.50
2022-09-30T22:59:32.444Z,437.02
2022-09-30T23:01:59.942Z,432.35
2022-09-30T23:04:27.812Z,436.25
2022-09-30T23:06:55.857Z,438.02
2022-09-30T23:09:23.758Z,427.52
2022-09-30T23:11:55.398Z,430.83
2022-09-30T23:14:24.909Z,432.48
2022-09-30T23:16:52.383Z,429.90
2022-09-30T23:19:20.318Z,427.27
2022-09-30T23:21:48.039Z,423.02
2022-09-30T23:24:15.817Z,423.52
2022-09-30T23:26:43.744Z,420.90
2022-09-30T23:29:15.094Z,419.13
2022-09-30T23:31:42.720Z,416.20
2022-09-30T23:34:10.291Z,417.80
2022-09-30T23:36:38.389Z,416.77
2022-09-30T23:39:13.360Z,422.15
2022-09-30T23:41:41.257Z,417.00
2022-09-30T23:44:10.192Z,417.75
2022-09-30T23:46:37.628Z,421.92
2022-09-30T23:49:05.037Z,417.35
2022-09-30T23:51:34.411Z,425.55
2022-09-30T23:54:04.429Z,423.65
2022-09-30T23:56:33.089Z,423.80
2022-09-30T23:59:03.467Z,422.58
